sensor_id;sensor_type;location;lat;lon;timestamp;pressure;altitude;pressure_sealevel;temperature;humidity
42125;BME280;27787;44.594;11.046;2023-05-21T00:01:06;100840.59;;;15.80;100.00
42125;BME280;27787;44.594;11.046;2023-05-21T00:04:31;100842.31;;;15.84;100.00
42125;BME280;27787;44.594;11.046;2023-05-21T00:07:20;100842.31;;;15.84;100.00
42125;BME280;27787;44.594;11.046;2023-05-21T00:10:07;100829.88;;;15.84;100.00
42125;BME280;27787;44.594;11.046;2023-05-21T00:13:24;100827.22;;;15.84;100.00
42125;BME280;27787;44.594;11.046;2023-05-21T00:16:21;100828.13;;;15.83;100.00
42125;BME280;27787;44.594;11.046;2023-05-21T00:19:51;100819.25;;;15.83;100.00
42125;BME280;27787;44.594;11.046;2023-05-21T00:22:38;100818.38;;;15.84;100.00
42125;BME280;27787;44.594;11.046;2023-05-21T00:25:36;100819.25;;;15.84;100.00
42125;BME280;27787;44.594;11.046;2023-05-21T00:28:30;100815.75;;;15.81;100.00
42125;BME280;27787;44.594;11.046;2023-05-21T00:31:22;100812.19;;;15.82;100.00
42125;BME280;27787;44.594;11.046;2023-05-21T00:34:15;100814.88;;;15.80;100.00
42125;BME280;27787;44.594;11.046;2023-05-21T00:37:37;100805.16;;;15.78;100.00
42125;BME280;27787;44.594;11.046;2023-05-21T00:40:37;100805.19;;;15.76;100.00
42125;BME280;27787;44.594;11.046;2023-05-21T00:43:48;100806.97;;;15.76;100.00
42125;BME280;27787;44.594;11.046;2023-05-21T00:46:54;100795.41;;;15.75;100.00
42125;BME280;27787;44.594;11.046;2023-05-21T00:50:07;100789.22;;;15.73;100.00
42125;BME280;27787;44.594;11.046;2023-05-21T00:53:07;100783.88;;;15.75;100.00
42125;BME280;27787;44.594;11.046;2023-05-21T00:56:47;100784.75;;;15.75;100.00
42125;BME280;27787;44.594;11.046;2023-05-21T00:59:46;100783.88;;;15.76;100.00
42125;BME280;27787;44.594;11.046;2023-05-21T01:02:48;100775.00;;;15.74;100.00
42125;BME280;27787;44.594;11.046;2023-05-21T01:05:49;100765.25;;;15.73;100.00
42125;BME280;27787;44.594;11.046;2023-05-21T01:08:45;100766.16;;;15.72;100.00
42125;BME280;27787;44.594;11.046;2023-05-21T01:11:43;100768.84;;;15.72;100.00
42125;BME280;27787;44.594;11.046;2023-05-21T01:14:36;100763.50;;;15.72;100.00
42125;BME280;27787;44.594;11.046;2023-05-21T01:17:27;100754.63;;;15.73;100.00
42125;BME280;27787;44.594;11.046;2023-05-21T01:20:28;100757.34;;;15.70;100.00
42125;BME280;27787;44.594;11.046;2023-05-21T01:23:24;100745.78;;;15.71;100.00
42125;BME280;27787;44.594;11.046;2023-05-21T01:26:13;100746.66;;;15.72;100.00
42125;BME280;27787;44.594;11.046;2023-05-21T01:29:04;100740.47;;;15.70;100.00
42125;BME280;27787;44.594;11.046;2023-05-21T01:32:26;100727.19;;;15.70;100.00
42125;BME280;27787;44.594;11.046;2023-05-21T01:38:36;100734.25;;;15.71;100.00
42125;BME280;27787;44.594;11.046;2023-05-21T01:41:39;100738.66;;;15.73;100.00
42125;BME280;27787;44.594;11.046;2023-05-21T01:44:37;100736.91;;;15.72;100.00
42125;BME280;27787;44.594;11.046;2023-05-21T01:47:25;100728.91;;;15.72;100.00
42125;BME280;27787;44.594;11.046;2023-05-21T01:50:41;100729.78;;;15.73;100.00
42125;BME280;27787;44.594;11.046;2023-05-21T01:53:36;100723.59;;;15.72;100.00
42125;BME280;27787;44.594;11.046;2023-05-21T01:56:33;100726.28;;;15.71;100.00
42125;BME280;27787;44.594;11.046;2023-05-21T01:59:39;100726.28;;;15.69;100.00
42125;BME280;27787;44.594;11.046;2023-05-21T02:02:38;100708.53;;;15.70;100.00
42125;BME280;27787;44.594;11.046;2023-05-21T02:05:27;100706.84;;;15.66;100.00
42125;BME280;27787;44.594;11.046;2023-05-21T02:08:16;100700.66;;;15.63;100.00
42125;BME280;27787;44.594;11.046;2023-05-21T02:11:40;100700.69;;;15.60;100.00
42125;BME280;27787;44.594;11.046;2023-05-21T02:14:51;100680.28;;;15.58;100.00
42125;BME280;27787;44.594;11.046;2023-05-21T02:17:44;100688.31;;;15.56;100.00
42125;BME280;27787;44.594;11.046;2023-05-21T02:20:34;100683.03;;;15.53;100.00
42125;BME280;27787;44.594;11.046;2023-05-21T02:23:23;100675.06;;;15.52;100.00
42125;BME280;27787;44.594;11.046;2023-05-21T02:26:32;100682.13;;;15.54;100.00
42125;BME280;27787;44.594;11.046;2023-05-21T02:29:46;100682.97;;;15.56;100.00
42125;BME280;27787;44.594;11.046;2023-05-21T02:33:03;100672.38;;;15.55;100.00
42125;BME280;27787;44.594;11.046;2023-05-21T02:36:42;100677.66;;;15.56;100.00
42125;BME280;27787;44.594;11.046;2023-05-21T02:40:16;100671.44;;;15.57;100.00
42125;BME280;27787;44.594;11.046;2023-05-21T02:44:03;100668.78;;;15.57;100.00
42125;BME280;27787;44.594;11.046;2023-05-21T02:46:55;100673.22;;;15.57;100.00
42125;BME280;27787;44.594;11.046;2023-05-21T02:50:12;100667.91;;;15.57;100.00
42125;BME280;27787;44.594;11.046;2023-05-21T02:53:37;100678.59;;;15.54;100.00
42125;BME280;27787;44.594;11.046;2023-05-21T02:57:31;100691.94;;;15.49;100.00
42125;BME280;27787;44.594;11.046;2023-05-21T03:00:38;100692.84;;;15.48;100.00
42125;BME280;27787;44.594;11.046;2023-05-21T03:04:10;100682.25;;;15.45;100.00
42125;BME280;27787;44.594;11.046;2023-05-21T03:06:59;100685.78;;;15.46;100.00
42125;BME280;27787;44.594;11.046;2023-05-21T03:10:04;100676.06;;;15.45;100.00
42125;BME280;27787;44.594;11.046;2023-05-21T03:12:56;100668.13;;;15.42;100.00
42125;BME280;27787;44.594;11.046;2023-05-21T03:16:07;100668.19;;;15.37;100.00
42125;BME280;27787;44.594;11.046;2023-05-21T03:19:04;100675.31;;;15.37;100.00
42125;BME280;27787;44.594;11.046;2023-05-21T03:22:13;100660.22;;;15.35;100.00
42125;BME280;27787;44.594;11.046;2023-05-21T03:25:11;100668.19;;;15.35;100.00
42125;BME280;27787;44.594;11.046;2023-05-21T03:28:24;100672.69;;;15.32;100.00
42125;BME280;27787;44.594;11.046;2023-05-21T03:31:40;100670.91;;;15.31;100.00
42125;BME280;27787;44.594;11.046;2023-05-21T03:34:36;100670.91;;;15.32;100.00
42125;BME280;27787;44.594;11.046;2023-05-21T03:37:40;100682.38;;;15.34;100.00
42125;BME280;27787;44.594;11.046;2023-05-21T03:40:40;100685.94;;;15.33;100.00
42125;BME280;27787;44.594;11.046;2023-05-21T03:43:29;100696.56;;;15.35;100.00
42125;BME280;27787;44.594;11.046;2023-05-21T03:46:25;100707.28;;;15.30;100.00
42125;BME280;27787;44.594;11.046;2023-05-21T03:50:05;100710.84;;;15.29;100.00
42125;BME280;27787;44.594;11.046;2023-05-21T03:53:35;100709.09;;;15.28;100.00
42125;BME280;27787;44.594;11.046;2023-05-21T03:56:56;100725.91;;;15.29;100.00
42125;BME280;27787;44.594;11.046;2023-05-21T04:00:13;100729.47;;;15.28;100.00
42125;BME280;27787;44.594;11.046;2023-05-21T04:03:11;100724.13;;;15.29;100.00
42125;BME280;27787;44.594;11.046;2023-05-21T04:06:33;100720.63;;;15.27;100.00
42125;BME280;27787;44.594;11.046;2023-05-21T04:09:35;100719.69;;;15.30;100.00
42125;BME280;27787;44.594;11.046;2023-05-21T04:12:27;100725.00;;;15.30;100.00
42125;BME280;27787;44.594;11.046;2023-05-21T04:15:51;100723.16;;;15.35;100.00
42125;BME280;27787;44.594;11.046;2023-05-21T04:19:07;100725.81;;;15.35;100.00
42125;BME280;27787;44.594;11.046;2023-05-21T04:21:55;100726.72;;;15.34;100.00
42125;BME280;27787;44.594;11.046;2023-05-21T04:24:56;100730.28;;;15.33;100.00
42125;BME280;27787;44.594;11.046;2023-05-21T04:28:05;100728.50;;;15.33;100.00
42125;BME280;27787;44.594;11.046;2023-05-21T04:30:58;100737.38;;;15.32;100.00
42125;BME280;27787;44.594;11.046;2023-05-21T04:34:03;100726.69;;;15.35;100.00
42125;BME280;27787;44.594;11.046;2023-05-21T04:37:17;100727.56;;;15.39;100.00
42125;BME280;27787;44.594;11.046;2023-05-21T04:40:26;100722.25;;;15.39;100.00
42125;BME280;27787;44.594;11.046;2023-05-21T04:43:20;100727.56;;;15.39;100.00
42125;BME280;27787;44.594;11.046;2023-05-21T04:46:37;100723.97;;;15.43;100.00
42125;BME280;27787;44.594;11.046;2023-05-21T04:49:39;100730.13;;;15.45;100.00
42125;BME280;27787;44.594;11.046;2023-05-21T04:52:41;100722.97;;;15.49;100.00
42125;BME280;27787;44.594;11.046;2023-05-21T04:56:06;100725.66;;;15.47;100.00
42125;BME280;27787;44.594;11.046;2023-05-21T04:58:58;100720.41;;;15.44;100.00
42125;BME280;27787;44.594;11.046;2023-05-21T05:02:15;100716.88;;;15.42;100.00
42125;BME280;27787;44.594;11.046;2023-05-21T05:05:16;100716.94;;;15.39;100.00
42125;BME280;27787;44.594;11.046;2023-05-21T05:08:20;100716.91;;;15.41;100.00
42125;BME280;27787;44.594;11.046;2023-05-21T05:11:26;100722.25;;;15.39;100.00
42125;BME280;27787;44.594;11.046;2023-05-21T05:14:10;100730.22;;;15.41;100.00
42125;BME280;27787;44.594;11.046;2023-05-21T05:17:07;100727.53;;;15.41;100.00
42125;BME280;27787;44.594;11.046;2023-05-21T05:20:07;100731.09;;;15.41;100.00
42125;BME280;27787;44.594;11.046;2023-05-21T05:23:29;100727.47;;;15.45;100.00
42125;BME280;27787;44.594;11.046;2023-05-21T05:26:15;100728.31;;;15.47;100.00
42125;BME280;27787;44.594;11.046;2023-05-21T05:29:42;100726.50;;;15.52;100.00
42125;BME280;27787;44.594;11.046;2023-05-21T05:32:59;100728.25;;;15.55;100.00
42125;BME280;27787;44.594;11.046;2023-05-21T05:35:49;100738.84;;;15.59;100.00
42125;BME280;27787;44.594;11.046;2023-05-21T05:39:08;100729.94;;;15.62;100.00
42125;BME280;27787;44.594;11.046;2023-05-21T05:42:05;100727.28;;;15.63;100.00
42125;BME280;27787;44.594;11.046;2023-05-21T05:44:55;100739.69;;;15.65;100.00
42125;BME280;27787;44.594;11.046;2023-05-21T05:48:01;100737.84;;;15.68;100.00
42125;BME280;27787;44.594;11.046;2023-05-21T05:51:01;100740.47;;;15.70;100.00
42125;BME280;27787;44.594;11.046;2023-05-21T05:54:11;100741.28;;;15.75;100.00
42125;BME280;27787;44.594;11.046;2023-05-21T05:57:16;100737.78;;;15.73;100.00
42125;BME280;27787;44.594;11.046;2023-05-21T06:00:25;100742.19;;;15.77;100.00
42125;BME280;27787;44.594;11.046;2023-05-21T06:03:17;100745.66;;;15.80;100.00
42125;BME280;27787;44.594;11.046;2023-05-21T06:06:20;100732.31;;;15.83;100.00
42125;BME280;27787;44.594;11.046;2023-05-21T06:09:09;100735.75;;;15.88;100.00
42125;BME280;27787;44.594;11.046;2023-05-21T06:12:05;100734.81;;;15.94;100.00
42125;BME280;27787;44.594;11.046;2023-05-21T06:14:59;100732.06;;;15.99;100.00
42125;BME280;27787;44.594;11.046;2023-05-21T06:17:52;100726.69;;;16.03;100.00
42125;BME280;27787;44.594;11.046;2023-05-21T06:21:15;100722.19;;;16.07;100.00
42125;BME280;27787;44.594;11.046;2023-05-21T06:24:24;100718.56;;;16.11;100.00
42125;BME280;27787;44.594;11.046;2023-05-21T06:27:16;100730.91;;;16.16;100.00
42125;BME280;27787;44.594;11.046;2023-05-21T06:30:16;100728.22;;;16.18;100.00
42125;BME280;27787;44.594;11.046;2023-05-21T06:33:26;100721.13;;;16.18;100.00
42125;BME280;27787;44.594;11.046;2023-05-21T06:36:14;100712.19;;;16.21;100.00
42125;BME280;27787;44.594;11.046;2023-05-21T06:39:15;100722.72;;;16.29;100.00
42125;BME280;27787;44.594;11.046;2023-05-21T06:42:11;100729.69;;;16.36;100.00
42125;BME280;27787;44.594;11.046;2023-05-21T06:45:16;100722.50;;;16.42;100.00
42125;BME280;27787;44.594;11.046;2023-05-21T06:48:10;100732.22;;;16.45;100.00
42125;BME280;27787;44.594;11.046;2023-05-21T06:51:02;100732.22;;;16.45;100.00
42125;BME280;27787;44.594;11.046;2023-05-21T06:53:50;100731.28;;;16.47;100.00
42125;BME280;27787;44.594;11.046;2023-05-21T06:56:47;100736.63;;;16.46;100.00
42125;BME280;27787;44.594;11.046;2023-05-21T06:59:34;100742.72;;;16.52;100.00
42125;BME280;27787;44.594;11.046;2023-05-21T07:02:23;100734.72;;;16.54;100.00
42125;BME280;27787;44.594;11.046;2023-05-21T07:05:35;100738.09;;;16.64;100.00
42125;BME280;27787;44.594;11.046;2023-05-21T07:08:27;100729.16;;;16.66;100.00
42125;BME280;27787;44.594;11.046;2023-05-21T07:11:17;100737.06;;;16.74;100.00
42125;BME280;27787;44.594;11.046;2023-05-21T07:14:14;100741.28;;;16.86;100.00
42125;BME280;27787;44.594;11.046;2023-05-21T07:17:07;100740.09;;;17.00;100.00
42125;BME280;27787;44.594;11.046;2023-05-21T07:20:05;100729.38;;;17.03;100.00
42125;BME280;27787;44.594;11.046;2023-05-21T07:23:14;100731.09;;;17.07;100.00
42125;BME280;27787;44.594;11.046;2023-05-21T07:26:30;100724.78;;;17.12;100.00
42125;BME280;27787;44.594;11.046;2023-05-21T07:29:20;100727.44;;;17.12;100.00
42125;BME280;27787;44.594;11.046;2023-05-21T07:32:04;100724.75;;;17.13;100.00
42125;BME280;27787;44.594;11.046;2023-05-21T07:34:55;100729.91;;;17.22;100.00
42125;BME280;27787;44.594;11.046;2023-05-21T07:37:46;100729.97;;;17.19;100.00
42125;BME280;27787;44.594;11.046;2023-05-21T07:40:32;100736.16;;;17.21;100.00
42125;BME280;27787;44.594;11.046;2023-05-21T07:43:37;100724.59;;;17.21;100.00
42125;BME280;27787;44.594;11.046;2023-05-21T07:46:23;100731.47;;;17.31;100.00
42125;BME280;27787;44.594;11.046;2023-05-21T07:49:14;100746.59;;;17.32;100.00
42125;BME280;27787;44.594;11.046;2023-05-21T07:52:06;100743.91;;;17.33;100.00
42125;BME280;27787;44.594;11.046;2023-05-21T07:55:01;100739.19;;;17.45;100.00
42125;BME280;27787;44.594;11.046;2023-05-21T07:57:57;100736.47;;;17.48;100.00
42125;BME280;27787;44.594;11.046;2023-05-21T08:01:10;100736.25;;;17.57;100.00
42125;BME280;27787;44.594;11.046;2023-05-21T08:04:15;100734.22;;;17.71;100.00
42125;BME280;27787;44.594;11.046;2023-05-21T08:07:10;100743.06;;;17.73;100.00
42125;BME280;27787;44.594;11.046;2023-05-21T08:10:03;100734.91;;;17.79;100.00
42125;BME280;27787;44.594;11.046;2023-05-21T08:13:10;100734.06;;;17.77;100.00
42125;BME280;27787;44.594;11.046;2023-05-21T08:16:43;100729.50;;;17.82;100.00
42125;BME280;27787;44.594;11.046;2023-05-21T08:19:34;100724.88;;;17.90;100.00
42125;BME280;27787;44.594;11.046;2023-05-21T08:22:43;100723.81;;;17.97;100.00
42125;BME280;27787;44.594;11.046;2023-05-21T08:25:45;100729.09;;;18.01;100.00
42125;BME280;27787;44.594;11.046;2023-05-21T08:32:26;100733.75;;;18.28;100.00
42125;BME280;27787;44.594;11.046;2023-05-21T08:39:48;100730.81;;;18.39;100.00
42125;BME280;27787;44.594;11.046;2023-05-21T08:43:12;100716.53;;;18.40;100.00
42125;BME280;27787;44.594;11.046;2023-05-21T08:46:31;100719.97;;;18.45;100.00
42125;BME280;27787;44.594;11.046;2023-05-21T08:49:21;100720.00;;;18.43;100.00
42125;BME280;27787;44.594;11.046;2023-05-21T08:52:10;100726.22;;;18.44;100.00
42125;BME280;27787;44.594;11.046;2023-05-21T08:54:56;100736.53;;;18.59;100.00
42125;BME280;27787;44.594;11.046;2023-05-21T08:57:46;100731.13;;;18.62;100.00
42125;BME280;27787;44.594;11.046;2023-05-21T09:00:47;100727.41;;;18.68;100.00
42125;BME280;27787;44.594;11.046;2023-05-21T09:03:42;100731.84;;;18.69;100.00
42125;BME280;27787;44.594;11.046;2023-05-21T09:06:30;100726.31;;;18.75;100.00
42125;BME280;27787;44.594;11.046;2023-05-21T09:09:33;100730.59;;;18.82;99.94
42125;BME280;27787;44.594;11.046;2023-05-21T09:12:32;100729.44;;;18.92;99.60
42125;BME280;27787;44.594;11.046;2023-05-21T09:15:29;100726.03;;;18.85;100.00
42125;BME280;27787;44.594;11.046;2023-05-21T09:18:25;100728.66;;;18.87;100.00
42125;BME280;27787;44.594;11.046;2023-05-21T09:21:44;100729.16;;;19.03;95.95
42125;BME280;27787;44.594;11.046;2023-05-21T09:24:41;100735.09;;;19.12;95.87
42125;BME280;27787;44.594;11.046;2023-05-21T09:27:39;100722.56;;;19.14;97.42
42125;BME280;27787;44.594;11.046;2023-05-21T09:30:58;100722.53;;;19.16;99.74
42125;BME280;27787;44.594;11.046;2023-05-21T09:34:27;100725.97;;;19.20;100.00
42125;BME280;27787;44.594;11.046;2023-05-21T09:37:16;100740.81;;;19.31;99.57
42125;BME280;27787;44.594;11.046;2023-05-21T09:40:50;100735.41;;;19.33;100.00
42125;BME280;27787;44.594;11.046;2023-05-21T09:43:44;100736.25;;;19.35;98.17
42125;BME280;27787;44.594;11.046;2023-05-21T09:47:07;100730.75;;;19.39;97.38
42125;BME280;27787;44.594;11.046;2023-05-21T09:49:59;100739.28;;;19.54;97.50
42125;BME280;27787;44.594;11.046;2023-05-21T09:53:34;100731.22;;;19.55;98.11
42125;BME280;27787;44.594;11.046;2023-05-21T09:56:33;100757.06;;;19.56;97.46
42125;BME280;27787;44.594;11.046;2023-05-21T09:59:35;100747.97;;;19.62;96.51
42125;BME280;27787;44.594;11.046;2023-05-21T10:02:34;100739.97;;;19.60;96.37
42125;BME280;27787;44.594;11.046;2023-05-21T10:05:24;100745.91;;;19.71;98.00
42125;BME280;27787;44.594;11.046;2023-05-21T10:08:10;100747.00;;;19.94;96.58
42125;BME280;27787;44.594;11.046;2023-05-21T10:10:56;100741.47;;;19.98;94.41
42125;BME280;27787;44.594;11.046;2023-05-21T10:13:43;100736.78;;;20.05;94.14
42125;BME280;27787;44.594;11.046;2023-05-21T10:16:29;100736.88;;;20.02;93.79
42125;BME280;27787;44.594;11.046;2023-05-21T10:19:15;100737.19;;;19.93;93.16
42125;BME280;27787;44.594;11.046;2023-05-21T10:22:00;100739.63;;;20.00;94.77
42125;BME280;27787;44.594;11.046;2023-05-21T10:24:47;100734.38;;;19.97;93.57
42125;BME280;27787;44.594;11.046;2023-05-21T10:27:43;100736.28;;;19.94;92.39
42125;BME280;27787;44.594;11.046;2023-05-21T10:30:54;100734.41;;;19.96;93.07
42125;BME280;27787;44.594;11.046;2023-05-21T10:34:25;100737.72;;;20.04;93.15
42125;BME280;27787;44.594;11.046;2023-05-21T10:37:12;100734.03;;;20.08;92.09
42125;BME280;27787;44.594;11.046;2023-05-21T10:39:57;100735.84;;;20.08;92.66
42125;BME280;27787;44.594;11.046;2023-05-21T10:43:05;100730.38;;;20.11;93.81
42125;BME280;27787;44.594;11.046;2023-05-21T10:46:33;100723.44;;;20.31;91.54
42125;BME280;27787;44.594;11.046;2023-05-21T11:02:37;100707.88;;;20.41;92.79
42125;BME280;27787;44.594;11.046;2023-05-21T11:05:39;100714.97;;;20.45;93.58
42125;BME280;27787;44.594;11.046;2023-05-21T11:08:46;100706.81;;;20.48;91.81
42125;BME280;27787;44.594;11.046;2023-05-21T11:11:49;100701.25;;;20.53;91.58
42125;BME280;27787;44.594;11.046;2023-05-21T11:24:36;100686.19;;;20.75;91.33
42125;BME280;27787;44.594;11.046;2023-05-21T11:27:51;100687.06;;;20.76;92.23
42125;BME280;27787;44.594;11.046;2023-05-21T11:30:43;100687.66;;;20.84;91.69
42125;BME280;27787;44.594;11.046;2023-05-21T11:41:24;100676.06;;;21.07;90.68
42125;BME280;27787;44.594;11.046;2023-05-21T11:44:02;100680.50;;;21.08;89.51
42125;BME280;27787;44.594;11.046;2023-05-21T11:46:49;100679.34;;;21.15;89.92
42125;BME280;27787;44.594;11.046;2023-05-21T11:49:40;100678.91;;;21.27;90.62
42125;BME280;27787;44.594;11.046;2023-05-21T11:52:28;100678.38;;;21.41;90.40
42125;BME280;27787;44.594;11.046;2023-05-21T11:55:13;100677.84;;;21.55;89.44
42125;BME280;27787;44.594;11.046;2023-05-21T11:57:59;100668.56;;;21.63;87.81
42125;BME280;27787;44.594;11.046;2023-05-21T12:00:43;100675.47;;;21.69;86.04
42125;BME280;27787;44.594;11.046;2023-05-21T12:03:28;100667.22;;;21.73;85.99
42125;BME280;27787;44.594;11.046;2023-05-21T12:06:13;100663.50;;;21.77;86.12
42125;BME280;27787;44.594;11.046;2023-05-21T12:08:57;100669.88;;;21.75;85.86
42125;BME280;27787;44.594;11.046;2023-05-21T12:11:42;100673.75;;;21.68;85.32
42125;BME280;27787;44.594;11.046;2023-05-21T12:14:26;100670.38;;;21.63;86.04
42125;BME280;27787;44.594;11.046;2023-05-21T12:17:11;100663.19;;;21.63;87.81
42125;BME280;27787;44.594;11.046;2023-05-21T12:20:02;100668.22;;;21.71;87.40
42125;BME280;27787;44.594;11.046;2023-05-21T12:22:51;100658.88;;;21.81;84.26
42125;BME280;27787;44.594;11.046;2023-05-21T12:25:35;100657.50;;;21.93;82.75
42125;BME280;27787;44.594;11.046;2023-05-21T12:28:20;100652.84;;;21.96;82.29
42125;BME280;27787;44.594;11.046;2023-05-21T12:31:05;100654.00;;;22.13;83.14
42125;BME280;27787;44.594;11.046;2023-05-21T12:33:50;100653.41;;;22.26;80.80
42125;BME280;27787;44.594;11.046;2023-05-21T12:36:34;100648.88;;;22.28;80.29
42125;BME280;27787;44.594;11.046;2023-05-21T12:39:20;100650.63;;;22.29;81.27
42125;BME280;27787;44.594;11.046;2023-05-21T12:42:05;100654.91;;;22.33;81.76
42125;BME280;27787;44.594;11.046;2023-05-21T12:44:51;100647.78;;;22.32;82.16
42125;BME280;27787;44.594;11.046;2023-05-21T12:47:35;100640.72;;;22.30;82.20
42125;BME280;27787;44.594;11.046;2023-05-21T12:50:20;100637.09;;;22.31;82.80
42125;BME280;27787;44.594;11.046;2023-05-21T12:53:07;100641.25;;;22.38;83.10
42125;BME280;27787;44.594;11.046;2023-05-21T12:55:52;100638.31;;;22.44;82.48
42125;BME280;27787;44.594;11.046;2023-05-21T12:58:40;100632.78;;;22.47;81.63
42125;BME280;27787;44.594;11.046;2023-05-21T13:01:24;100634.13;;;22.57;81.76
42125;BME280;27787;44.594;11.046;2023-05-21T13:04:08;100638.19;;;22.67;80.84
42125;BME280;27787;44.594;11.046;2023-05-21T13:06:52;100631.03;;;22.87;80.06
42125;BME280;27787;44.594;11.046;2023-05-21T13:09:36;100634.41;;;22.92;79.89
42125;BME280;27787;44.594;11.046;2023-05-21T13:12:22;100641.00;;;22.85;79.85
42125;BME280;27787;44.594;11.046;2023-05-21T13:15:07;100626.91;;;22.78;80.64
42125;BME280;27787;44.594;11.046;2023-05-21T13:17:51;100622.25;;;22.83;81.18
42125;BME280;27787;44.594;11.046;2023-05-21T13:20:36;100619.75;;;22.79;81.87
42125;BME280;27787;44.594;11.046;2023-05-21T13:23:22;100619.91;;;22.74;81.48
42125;BME280;27787;44.594;11.046;2023-05-21T13:26:06;100612.31;;;22.63;82.16
42125;BME280;27787;44.594;11.046;2023-05-21T13:28:50;100621.34;;;22.62;81.93
42125;BME280;27787;44.594;11.046;2023-05-21T13:31:34;100613.53;;;22.77;80.74
42125;BME280;27787;44.594;11.046;2023-05-21T13:34:25;100606.75;;;22.88;80.65
42125;BME280;27787;44.594;11.046;2023-05-21T13:37:09;100600.22;;;23.13;79.77
42125;BME280;27787;44.594;11.046;2023-05-21T13:39:53;100599.47;;;23.28;79.08
42125;BME280;27787;44.594;11.046;2023-05-21T13:42:38;100598.84;;;23.23;77.03
42125;BME280;27787;44.594;11.046;2023-05-21T13:45:22;100593.97;;;23.12;78.01
42125;BME280;27787;44.594;11.046;2023-05-21T13:48:11;100596.00;;;23.07;77.22
42125;BME280;27787;44.594;11.046;2023-05-21T13:50:55;100595.69;;;23.13;74.32
42125;BME280;27787;44.594;11.046;2023-05-21T13:53:39;100591.63;;;23.23;74.63
42125;BME280;27787;44.594;11.046;2023-05-21T13:56:24;100592.84;;;23.16;75.34
42125;BME280;27787;44.594;11.046;2023-05-21T13:59:10;100593.44;;;23.04;73.13
42125;BME280;27787;44.594;11.046;2023-05-21T14:01:55;100584.88;;;22.96;72.84
42125;BME280;27787;44.594;11.046;2023-05-21T14:04:41;100586.19;;;23.06;71.37
42125;BME280;27787;44.594;11.046;2023-05-21T14:07:29;100580.00;;;23.23;70.85
42125;BME280;27787;44.594;11.046;2023-05-21T14:10:14;100583.13;;;23.33;69.77
42125;BME280;27787;44.594;11.046;2023-05-21T14:12:58;100587.03;;;23.25;70.06
42125;BME280;27787;44.594;11.046;2023-05-21T14:15:42;100585.81;;;23.14;71.12
42125;BME280;27787;44.594;11.046;2023-05-21T14:18:26;100582.44;;;23.28;70.62
42125;BME280;27787;44.594;11.046;2023-05-21T14:21:11;100588.47;;;23.51;69.69
42125;BME280;27787;44.594;11.046;2023-05-21T14:23:55;100584.50;;;23.60;69.02
42125;BME280;27787;44.594;11.046;2023-05-21T14:26:39;100581.25;;;23.52;68.22
42125;BME280;27787;44.594;11.046;2023-05-21T14:29:24;100580.34;;;23.34;66.93
42125;BME280;27787;44.594;11.046;2023-05-21T14:32:08;100584.19;;;23.29;68.18
42125;BME280;27787;44.594;11.046;2023-05-21T14:34:52;100586.28;;;23.41;69.13
42125;BME280;27787;44.594;11.046;2023-05-21T14:37:36;100577.13;;;23.45;69.24
42125;BME280;27787;44.594;11.046;2023-05-21T14:40:21;100573.06;;;23.36;69.54
42125;BME280;27787;44.594;11.046;2023-05-21T14:43:05;100582.91;;;23.18;69.30
42125;BME280;27787;44.594;11.046;2023-05-21T14:45:50;100571.28;;;23.18;69.00
42125;BME280;27787;44.594;11.046;2023-05-21T14:48:34;100576.03;;;23.30;69.41
42125;BME280;27787;44.594;11.046;2023-05-21T14:51:18;100579.84;;;23.45;69.29
42125;BME280;27787;44.594;11.046;2023-05-21T14:54:02;100583.38;;;23.64;68.72
42125;BME280;27787;44.594;11.046;2023-05-21T14:56:46;100581.38;;;23.87;67.87
42125;BME280;27787;44.594;11.046;2023-05-21T14:59:30;100576.41;;;23.96;66.50
42125;BME280;27787;44.594;11.046;2023-05-21T15:02:14;100583.19;;;24.03;66.28
42125;BME280;27787;44.594;11.046;2023-05-21T15:04:58;100581.22;;;23.90;65.73
42125;BME280;27787;44.594;11.046;2023-05-21T15:07:42;100568.81;;;23.68;65.95
42125;BME280;27787;44.594;11.046;2023-05-21T15:10:27;100581.25;;;23.52;66.77
42125;BME280;27787;44.594;11.046;2023-05-21T15:13:11;100579.22;;;23.57;67.76
42125;BME280;27787;44.594;11.046;2023-05-21T15:15:55;100579.22;;;23.76;67.33
42125;BME280;27787;44.594;11.046;2023-05-21T15:18:39;100578.06;;;23.99;64.70
42125;BME280;27787;44.594;11.046;2023-05-21T15:21:23;100576.41;;;24.13;62.94
42125;BME280;27787;44.594;11.046;2023-05-21T15:24:07;100583.38;;;24.35;62.70
42125;BME280;27787;44.594;11.046;2023-05-21T15:26:51;100580.44;;;24.57;60.00
42125;BME280;27787;44.594;11.046;2023-05-21T15:29:36;100581.09;;;24.78;59.86
42125;BME280;27787;44.594;11.046;2023-05-21T15:32:21;100581.22;;;24.92;59.67
42125;BME280;27787;44.594;11.046;2023-05-21T15:35:05;100583.88;;;25.09;58.32
42125;BME280;27787;44.594;11.046;2023-05-21T15:37:49;100581.28;;;25.08;56.66
42125;BME280;27787;44.594;11.046;2023-05-21T15:40:33;100582.41;;;25.19;56.78
42125;BME280;27787;44.594;11.046;2023-05-21T15:43:18;100580.84;;;25.31;56.42
42125;BME280;27787;44.594;11.046;2023-05-21T15:46:02;100577.47;;;25.43;55.32
42125;BME280;27787;44.594;11.046;2023-05-21T15:48:47;100578.31;;;25.59;54.39